METAR Data
IDs: Format: Raw Decoded Include TAF

Data at: 0238 UTC 12 May 2021

KMIE 120153Z 35006KT 10SM CLR 09/01 A3034 RMK AO2 SLP273 T00890011
KMIE 120053Z 36007KT 10SM CLR 10/01 A3031 RMK AO2 SLP262 T01000011
KMIE 112353Z 01010KT 10SM CLR 12/M01 A3028 RMK AO2 SLP254 T01221006 10144 20122 53008
KMIE 112253Z 02011KT 10SM SCT060 13/M01 A3027 RMK AO2 SLP248 T01331006
KMIE 112153Z 01009KT 10SM FEW055 13/M01 A3027 RMK AO2 SLP250 T01331006
KMIE 112053Z 36011G19KT 10SM FEW055 14/M01 A3026 RMK AO2 SLP244 T01391006 57014
KMIE 111953Z 01011G20KT 10SM SCT055 14/01 A3027 RMK AO2 SLP250 T01390006
KMIE 111853Z 35013G20KT 10SM SCT055 13/00 A3029 RMK AO2 SLP253 T01330000
KMIE 111753Z 35011G19KT 10SM BKN055 13/01 A3030 RMK AO2 SLP259 T01330011 10139 20072 57001
KMIE 111653Z 36012KT 10SM FEW048 13/01 A3031 RMK AO2 SLP261 T01280011
KMIE 111553Z 04009KT 10SM CLR 12/01 A3030 RMK AO2 SLP258 T01220011
KMIE 111453Z 04007KT 10SM CLR 11/01 A3030 RMK AO2 SLP260 T01060011 53016
KMIE 111353Z 03009KT 10SM BKN110 09/01 A3029 RMK AO2 SLP255 T00940011
KMIE 111253Z 03009KT 10SM OVC100 08/01 A3027 RMK AO2 SLP249 T00780006
KMIE 111153Z 02009KT 10SM BKN100 OVC120 07/01 A3026 RMK AO2 SLP244 60000 70006 T00720011 10094 20067 51023
KMIE 111053Z 35004KT 10SM OVC095 07/02 A3024 RMK AO2 SLP238 T00670022
KMIE 110953Z AUTO 36005KT 10SM SCT080 BKN100 OVC120 07/02 A3022 RMK AO2 SLP230 T00720022
KMIE 110853Z AUTO 04005KT 10SM FEW046 BKN065 OVC085 08/02 A3019 RMK AO2 RAE26 SLP219 P0000 60000 T00780022 53005
KMIE 110753Z AUTO 36009KT 10SM -RA OVC065 08/03 A3019 RMK AO2 RAB15 SLP218 P0000 T00830028
KMIE 110653Z AUTO 01005KT 10SM OVC060 09/07 A3017 RMK AO2 SLP212 T00940067
KMIE 110553Z AUTO 06003KT 10SM OVC060 09/07 A3017 RMK AO2 RAE46 SLP214 P0003 60006 T00940067 10150 20094 50003
KMIE 110508Z AUTO VRB04KT 4SM -RA BR FEW009 BKN045 OVC055 09/07 A3017 RMK AO2 P0001 T00940072
KMIE 110453Z AUTO 35007KT 8SM -RA BKN045 OVC055 10/07 A3018 RMK AO2 SLP215 P0002 T01000072 401670011
KMIE 110353Z AUTO 01007KT 10SM -RA FEW047 BKN060 OVC070 10/07 A3017 RMK AO2 RAB0257 SLP214 P0001 T01000067
KMIE 110253Z AUTO 32006KT 10SM FEW041 OVC050 11/07 A3016 RMK AO2 RAB02E40 SLP212 P0000 60000 T01110072 53018
KMIE 110153Z 34008KT 10SM OVC060 12/06 A3014 RMK AO2 RAB0055E34 SLP204 P0000 T01170061
KMIE 110053Z 36005KT 10SM FEW050 BKN070 OVC080 14/07 A3011 RMK AO2 SLP195 T01390067
KMIE 102353Z 36005KT 10SM BKN095 OVC120 15/06 A3011 RMK AO2 SLP194 T01500056 10167 20150 55001
KMIE 102253Z 35005KT 10SM CLR 16/04 A3010 RMK AO2 SLP193 T01610044
KMIE 102153Z 32006KT 10SM BKN080 17/03 A3010 RMK AO2 SLP193 T01670033
KMIE 102053Z 33008KT 10SM BKN055 OVC100 16/03 A3011 RMK AO2 SLP196 T01610028 58004
KMIE 101953Z 27009KT 10SM BKN050 16/03 A3011 RMK AO2 SLP196 T01610033
KMIE 101853Z 26009KT 10SM FEW047 SCT060 16/04 A3013 RMK AO2 SLP200 T01560044
KMIE 101753Z 32008KT 10SM SCT043 BKN050 16/04 A3012 RMK AO2 SLP200 T01560044 10156 20044 58002
KMIE 101653Z 32005KT 10SM FEW038 FEW110 14/04 A3014 RMK AO2 SLP204 T01440039
KMIE 101553Z 29004KT 10SM CLR 13/04 A3013 RMK AO2 SLP203 T01330044
KMIE 101453Z 30005KT 10SM CLR 12/06 A3013 RMK AO2 SLP203 T01170061 51008